sensor_id;sensor_type;location;lat;lon;timestamp;temperature;humidity
52765;DHT22;38650;44.536;18.664;2022-12-10T07:57:56;13.50;99.90
52765;DHT22;38650;44.536;18.664;2022-12-10T08:00:21;14.10;99.90
52765;DHT22;38650;44.536;18.664;2022-12-10T08:02:47;14.40;99.90
52765;DHT22;38650;44.536;18.664;2022-12-10T08:05:13;14.60;99.90
52765;DHT22;38650;44.536;18.664;2022-12-10T08:07:38;14.80;99.90
52765;DHT22;38650;44.536;18.664;2022-12-10T08:10:04;15.00;99.90
52765;DHT22;38650;44.536;18.664;2022-12-10T08:12:30;15.30;99.90
52765;DHT22;38650;44.536;18.664;2022-12-10T08:14:56;15.60;99.90
52765;DHT22;38650;44.536;18.664;2022-12-10T08:17:21;15.90;99.90
52765;DHT22;38650;44.536;18.664;2022-12-10T08:19:47;16.30;99.90
52765;DHT22;38650;44.536;18.664;2022-12-10T08:22:13;16.40;99.90
52765;DHT22;38650;44.536;18.664;2022-12-10T08:24:38;16.40;99.90
52765;DHT22;38650;44.536;18.664;2022-12-10T08:27:04;16.30;99.90
52765;DHT22;38650;44.536;18.664;2022-12-10T08:29:30;16.20;99.90
52765;DHT22;38650;44.536;18.664;2022-12-10T08:31:55;16.20;99.90
52765;DHT22;38650;44.536;18.664;2022-12-10T08:34:21;16.10;99.90
52765;DHT22;38650;44.536;18.664;2022-12-10T08:36:46;16.20;99.90
52765;DHT22;38650;44.536;18.664;2022-12-10T08:39:13;16.20;99.90
52765;DHT22;38650;44.536;18.664;2022-12-10T08:41:44;16.20;99.90
52765;DHT22;38650;44.536;18.664;2022-12-10T08:44:11;16.20;99.90
52765;DHT22;38650;44.536;18.664;2022-12-10T08:46:37;16.20;99.90
52765;DHT22;38650;44.536;18.664;2022-12-10T08:49:03;16.30;99.90
52765;DHT22;38650;44.536;18.664;2022-12-10T08:51:29;16.30;99.90
52765;DHT22;38650;44.536;18.664;2022-12-10T08:53:55;16.20;99.90
52765;DHT22;38650;44.536;18.664;2022-12-10T08:56:21;15.90;99.90
52765;DHT22;38650;44.536;18.664;2022-12-10T08:58:46;16.00;99.90
52765;DHT22;38650;44.536;18.664;2022-12-10T09:01:15;16.10;99.90
52765;DHT22;38650;44.536;18.664;2022-12-10T09:03:41;16.20;99.90
52765;DHT22;38650;44.536;18.664;2022-12-10T09:06:10;16.20;99.90
52765;DHT22;38650;44.536;18.664;2022-12-10T09:08:36;16.20;99.90
52765;DHT22;38650;44.536;18.664;2022-12-10T09:11:17;16.20;99.90
52765;DHT22;38650;44.536;18.664;2022-12-10T09:13:43;16.20;99.90
52765;DHT22;38650;44.536;18.664;2022-12-10T09:16:09;16.20;99.90
52765;DHT22;38650;44.536;18.664;2022-12-10T09:18:35;16.20;99.90
52765;DHT22;38650;44.536;18.664;2022-12-10T09:21:05;16.20;99.90
52765;DHT22;38650;44.536;18.664;2022-12-10T09:23:31;16.10;99.90
52765;DHT22;38650;44.536;18.664;2022-12-10T09:25:56;16.20;99.90
52765;DHT22;38650;44.536;18.664;2022-12-10T09:28:22;16.30;99.90
52765;DHT22;38650;44.536;18.664;2022-12-10T09:30:58;16.40;99.90
52765;DHT22;38650;44.536;18.664;2022-12-10T09:33:25;16.40;99.90
52765;DHT22;38650;44.536;18.664;2022-12-10T09:35:51;16.50;99.90
52765;DHT22;38650;44.536;18.664;2022-12-10T09:38:17;16.70;99.90
52765;DHT22;38650;44.536;18.664;2022-12-10T09:41:02;16.70;99.90
52765;DHT22;38650;44.536;18.664;2022-12-10T09:43:55;16.70;99.90
52765;DHT22;38650;44.536;18.664;2022-12-10T09:46:31;16.90;99.90
52765;DHT22;38650;44.536;18.664;2022-12-10T09:51:41;17.40;99.90
52765;DHT22;38650;44.536;18.664;2022-12-10T09:54:54;17.80;99.90
52765;DHT22;38650;44.536;18.664;2022-12-10T09:57:26;18.00;99.90
52765;DHT22;38650;44.536;18.664;2022-12-10T09:59:53;18.10;99.90
52765;DHT22;38650;44.536;18.664;2022-12-10T10:02:24;18.50;99.90
52765;DHT22;38650;44.536;18.664;2022-12-10T10:04:53;18.70;99.90
52765;DHT22;38650;44.536;18.664;2022-12-10T10:07:25;18.90;99.90
52765;DHT22;38650;44.536;18.664;2022-12-10T10:09:59;19.00;99.90
52765;DHT22;38650;44.536;18.664;2022-12-10T10:12:31;19.20;99.90
52765;DHT22;38650;44.536;18.664;2022-12-10T10:14:57;19.20;99.90
52765;DHT22;38650;44.536;18.664;2022-12-10T10:17:36;19.00;99.90
52765;DHT22;38650;44.536;18.664;2022-12-10T10:20:02;19.20;99.90
52765;DHT22;38650;44.536;18.664;2022-12-10T10:22:28;19.50;99.90
52765;DHT22;38650;44.536;18.664;2022-12-10T10:24:55;19.80;99.90
52765;DHT22;38650;44.536;18.664;2022-12-10T10:27:24;19.80;99.90
52765;DHT22;38650;44.536;18.664;2022-12-10T10:29:53;19.90;99.90
52765;DHT22;38650;44.536;18.664;2022-12-10T10:32:43;19.80;99.90
52765;DHT22;38650;44.536;18.664;2022-12-10T10:35:29;20.00;98.40
52765;DHT22;38650;44.536;18.664;2022-12-10T10:38:07;19.90;99.90
52765;DHT22;38650;44.536;18.664;2022-12-10T10:40:40;19.90;99.10
52765;DHT22;38650;44.536;18.664;2022-12-10T10:43:23;19.80;99.90
52765;DHT22;38650;44.536;18.664;2022-12-10T10:46:06;19.90;99.90
52765;DHT22;38650;44.536;18.664;2022-12-10T10:48:35;20.00;99.90
52765;DHT22;38650;44.536;18.664;2022-12-10T10:53:50;19.90;97.90
52765;DHT22;38650;44.536;18.664;2022-12-10T10:56:25;19.80;97.80
52765;DHT22;38650;44.536;18.664;2022-12-10T10:59:23;19.70;99.90
52765;DHT22;38650;44.536;18.664;2022-12-10T11:01:55;19.60;99.90
52765;DHT22;38650;44.536;18.664;2022-12-10T11:04:27;19.50;99.90
52765;DHT22;38650;44.536;18.664;2022-12-10T11:06:55;19.40;99.90
52765;DHT22;38650;44.536;18.664;2022-12-10T11:09:28;19.40;99.90
52765;DHT22;38650;44.536;18.664;2022-12-10T11:12:03;19.40;99.90
52765;DHT22;38650;44.536;18.664;2022-12-10T11:14:49;19.50;99.90
52765;DHT22;38650;44.536;18.664;2022-12-10T11:22:26;19.90;99.90
52765;DHT22;38650;44.536;18.664;2022-12-10T11:24:52;19.90;99.90
52765;DHT22;38650;44.536;18.664;2022-12-10T11:30:05;20.10;99.90
52765;DHT22;38650;44.536;18.664;2022-12-10T11:32:52;20.20;99.30
52765;DHT22;38650;44.536;18.664;2022-12-10T11:38:31;20.20;99.60
52765;DHT22;38650;44.536;18.664;2022-12-10T11:41:01;20.20;98.40
52765;DHT22;38650;44.536;18.664;2022-12-10T11:51:53;20.00;98.50
52765;DHT22;38650;44.536;18.664;2022-12-10T12:00:21;19.90;99.90
52765;DHT22;38650;44.536;18.664;2022-12-10T12:08:27;19.70;99.10
52765;DHT22;38650;44.536;18.664;2022-12-10T12:14:12;19.50;99.90
52765;DHT22;38650;44.536;18.664;2022-12-10T12:16:51;19.50;99.90
52765;DHT22;38650;44.536;18.664;2022-12-10T12:19:29;19.60;99.90
52765;DHT22;38650;44.536;18.664;2022-12-10T12:22:02;19.60;99.90
52765;DHT22;38650;44.536;18.664;2022-12-10T12:24:38;19.60;99.90
52765;DHT22;38650;44.536;18.664;2022-12-10T12:30:06;19.60;99.90
52765;DHT22;38650;44.536;18.664;2022-12-10T12:35:19;19.50;99.90
52765;DHT22;38650;44.536;18.664;2022-12-10T12:38:19;19.40;99.90
52765;DHT22;38650;44.536;18.664;2022-12-10T12:41:04;19.40;99.90
52765;DHT22;38650;44.536;18.664;2022-12-10T12:46:04;19.30;99.90
52765;DHT22;38650;44.536;18.664;2022-12-10T12:48:43;19.30;99.90
52765;DHT22;38650;44.536;18.664;2022-12-10T12:51:21;19.20;99.90
52765;DHT22;38650;44.536;18.664;2022-12-10T12:53:48;19.20;99.90
52765;DHT22;38650;44.536;18.664;2022-12-10T12:59:20;19.10;99.90
52765;DHT22;38650;44.536;18.664;2022-12-10T13:01:57;19.00;99.90
52765;DHT22;38650;44.536;18.664;2022-12-10T13:04:25;18.90;99.90
52765;DHT22;38650;44.536;18.664;2022-12-10T13:09:49;18.80;99.90
52765;DHT22;38650;44.536;18.664;2022-12-10T13:12:29;18.80;99.90
52765;DHT22;38650;44.536;18.664;2022-12-10T13:17:33;18.80;99.90
52765;DHT22;38650;44.536;18.664;2022-12-10T13:20:29;18.80;99.90
52765;DHT22;38650;44.536;18.664;2022-12-10T13:23:03;18.70;99.90
52765;DHT22;38650;44.536;18.664;2022-12-10T13:34:06;18.40;99.90
52765;DHT22;38650;44.536;18.664;2022-12-10T13:39:20;18.40;99.90
52765;DHT22;38650;44.536;18.664;2022-12-10T13:45:06;18.40;99.90
52765;DHT22;38650;44.536;18.664;2022-12-10T13:47:50;18.40;99.90
52765;DHT22;38650;44.536;18.664;2022-12-10T13:56:12;18.30;99.90
52765;DHT22;38650;44.536;18.664;2022-12-10T13:58:50;18.30;99.90
52765;DHT22;38650;44.536;18.664;2022-12-10T14:06:45;18.20;99.90
52765;DHT22;38650;44.536;18.664;2022-12-10T14:09:11;18.10;99.90
52765;DHT22;38650;44.536;18.664;2022-12-10T14:14:21;18.10;99.90
52765;DHT22;38650;44.536;18.664;2022-12-10T14:16:48;18.00;99.90
52765;DHT22;38650;44.536;18.664;2022-12-10T14:19:14;18.00;99.90
52765;DHT22;38650;44.536;18.664;2022-12-10T14:21:43;18.00;99.90
52765;DHT22;38650;44.536;18.664;2022-12-10T14:24:48;17.80;99.90
52765;DHT22;38650;44.536;18.664;2022-12-10T14:27:23;17.80;99.90
52765;DHT22;38650;44.536;18.664;2022-12-10T14:29:52;17.80;99.90
52765;DHT22;38650;44.536;18.664;2022-12-10T14:32:29;17.80;99.90
52765;DHT22;38650;44.536;18.664;2022-12-10T14:34:57;17.80;99.90
52765;DHT22;38650;44.536;18.664;2022-12-10T14:37:29;17.70;99.90
52765;DHT22;38650;44.536;18.664;2022-12-10T14:39:56;17.70;99.90
52765;DHT22;38650;44.536;18.664;2022-12-10T14:42:22;17.60;99.90
52765;DHT22;38650;44.536;18.664;2022-12-10T14:44:58;17.60;99.90
52765;DHT22;38650;44.536;18.664;2022-12-10T14:47:25;17.70;99.90
52765;DHT22;38650;44.536;18.664;2022-12-10T14:49:54;17.60;99.90
52765;DHT22;38650;44.536;18.664;2022-12-10T14:52:25;17.60;99.90
52765;DHT22;38650;44.536;18.664;2022-12-10T14:54:57;17.50;99.90
52765;DHT22;38650;44.536;18.664;2022-12-10T14:57:31;17.40;99.90
52765;DHT22;38650;44.536;18.664;2022-12-10T15:00:05;17.30;99.90
52765;DHT22;38650;44.536;18.664;2022-12-10T15:02:41;17.10;99.90
52765;DHT22;38650;44.536;18.664;2022-12-10T15:05:20;17.00;99.90
52765;DHT22;38650;44.536;18.664;2022-12-10T15:08:15;16.90;99.90
52765;DHT22;38650;44.536;18.664;2022-12-10T15:10:45;16.60;99.90
52765;DHT22;38650;44.536;18.664;2022-12-10T15:15:47;15.90;99.90
52765;DHT22;38650;44.536;18.664;2022-12-10T15:18:37;15.60;99.90
52765;DHT22;38650;44.536;18.664;2022-12-10T15:23:39;14.80;99.90
52765;DHT22;38650;44.536;18.664;2022-12-10T15:26:24;14.70;99.90
52765;DHT22;38650;44.536;18.664;2022-12-10T15:28:51;14.50;99.90
52765;DHT22;38650;44.536;18.664;2022-12-10T15:33:55;14.30;99.90
52765;DHT22;38650;44.536;18.664;2022-12-10T15:36:40;14.30;99.90
52765;DHT22;38650;44.536;18.664;2022-12-10T15:39:21;14.30;99.90
52765;DHT22;38650;44.536;18.664;2022-12-10T15:41:58;14.30;99.90
52765;DHT22;38650;44.536;18.664;2022-12-10T15:47:10;13.80;99.90
52765;DHT22;38650;44.536;18.664;2022-12-10T15:49:38;13.70;99.90
52765;DHT22;38650;44.536;18.664;2022-12-10T15:52:05;13.40;99.90
52765;DHT22;38650;44.536;18.664;2022-12-10T15:54:36;13.50;99.90
52765;DHT22;38650;44.536;18.664;2022-12-10T15:57:16;13.60;99.90
52765;DHT22;38650;44.536;18.664;2022-12-10T15:59:44;13.50;99.90
52765;DHT22;38650;44.536;18.664;2022-12-10T16:04:52;13.50;99.90
52765;DHT22;38650;44.536;18.664;2022-12-10T16:07:17;13.50;99.90
52765;DHT22;38650;44.536;18.664;2022-12-10T16:09:46;13.50;99.90
52765;DHT22;38650;44.536;18.664;2022-12-10T16:12:13;13.40;99.90
52765;DHT22;38650;44.536;18.664;2022-12-10T16:14:51;13.50;99.90
52765;DHT22;38650;44.536;18.664;2022-12-10T16:17:18;13.30;99.90
52765;DHT22;38650;44.536;18.664;2022-12-10T16:19:44;13.20;99.90
52765;DHT22;38650;44.536;18.664;2022-12-10T16:22:10;13.10;99.90
52765;DHT22;38650;44.536;18.664;2022-12-10T16:24:36;13.10;99.90
52765;DHT22;38650;44.536;18.664;2022-12-10T16:27:15;13.20;99.90
52765;DHT22;38650;44.536;18.664;2022-12-10T16:29:41;13.30;99.90
52765;DHT22;38650;44.536;18.664;2022-12-10T16:32:12;13.20;99.90
52765;DHT22;38650;44.536;18.664;2022-12-10T16:34:38;13.20;99.90
52765;DHT22;38650;44.536;18.664;2022-12-10T16:37:05;13.20;99.90
52765;DHT22;38650;44.536;18.664;2022-12-10T16:39:31;13.20;99.90
52765;DHT22;38650;44.536;18.664;2022-12-10T16:41:56;13.30;99.90
52765;DHT22;38650;44.536;18.664;2022-12-10T16:44:22;13.10;99.90
52765;DHT22;38650;44.536;18.664;2022-12-10T16:46:48;13.00;99.90
52765;DHT22;38650;44.536;18.664;2022-12-10T16:49:14;12.80;99.90
52765;DHT22;38650;44.536;18.664;2022-12-10T16:51:40;12.60;99.90
52765;DHT22;38650;44.536;18.664;2022-12-10T16:54:11;12.50;99.90
52765;DHT22;38650;44.536;18.664;2022-12-10T16:56:39;12.60;99.90
52765;DHT22;38650;44.536;18.664;2022-12-10T16:59:04;12.70;99.90
52765;DHT22;38650;44.536;18.664;2022-12-10T17:01:30;12.70;99.90
52765;DHT22;38650;44.536;18.664;2022-12-10T17:03:57;12.20;99.90
52765;DHT22;38650;44.536;18.664;2022-12-10T17:06:24;12.00;99.90
52765;DHT22;38650;44.536;18.664;2022-12-10T17:08:50;12.00;99.90
52765;DHT22;38650;44.536;18.664;2022-12-10T17:11:20;11.90;99.90
52765;DHT22;38650;44.536;18.664;2022-12-10T17:14:08;12.00;99.90
52765;DHT22;38650;44.536;18.664;2022-12-10T17:16:34;12.20;99.90
52765;DHT22;38650;44.536;18.664;2022-12-10T17:19:00;12.20;99.90
52765;DHT22;38650;44.536;18.664;2022-12-10T17:21:26;12.20;99.90
52765;DHT22;38650;44.536;18.664;2022-12-10T17:23:52;12.10;99.90
52765;DHT22;38650;44.536;18.664;2022-12-10T17:26:27;11.80;99.90
52765;DHT22;38650;44.536;18.664;2022-12-10T17:28:56;11.90;99.90
52765;DHT22;38650;44.536;18.664;2022-12-10T17:31:24;11.90;99.90
52765;DHT22;38650;44.536;18.664;2022-12-10T17:33:50;11.70;99.90
52765;DHT22;38650;44.536;18.664;2022-12-10T17:36:16;11.90;99.90
52765;DHT22;38650;44.536;18.664;2022-12-10T17:38:42;11.90;99.90
52765;DHT22;38650;44.536;18.664;2022-12-10T17:41:09;12.00;99.90
52765;DHT22;38650;44.536;18.664;2022-12-10T17:43:36;12.00;99.90
52765;DHT22;38650;44.536;18.664;2022-12-10T17:46:03;11.90;99.90
52765;DHT22;38650;44.536;18.664;2022-12-10T17:48:29;12.00;99.90
52765;DHT22;38650;44.536;18.664;2022-12-10T17:50:55;11.70;99.90
52765;DHT22;38650;44.536;18.664;2022-12-10T17:53:20;11.70;99.90
52765;DHT22;38650;44.536;18.664;2022-12-10T17:55:58;11.80;99.90
52765;DHT22;38650;44.536;18.664;2022-12-10T17:58:24;11.90;99.90
52765;DHT22;38650;44.536;18.664;2022-12-10T18:00:51;11.80;99.90
52765;DHT22;38650;44.536;18.664;2022-12-10T18:03:17;11.50;99.90
52765;DHT22;38650;44.536;18.664;2022-12-10T18:05:43;11.30;99.90
52765;DHT22;38650;44.536;18.664;2022-12-10T18:08:13;11.50;99.90
52765;DHT22;38650;44.536;18.664;2022-12-10T18:10:40;11.70;99.90
52765;DHT22;38650;44.536;18.664;2022-12-10T18:13:06;11.70;99.90
52765;DHT22;38650;44.536;18.664;2022-12-10T18:15:31;11.60;99.90
52765;DHT22;38650;44.536;18.664;2022-12-10T18:17:58;11.60;99.90
52765;DHT22;38650;44.536;18.664;2022-12-10T18:20:35;11.70;99.90
52765;DHT22;38650;44.536;18.664;2022-12-10T18:23:04;11.50;99.90
52765;DHT22;38650;44.536;18.664;2022-12-10T18:25:31;11.60;99.90
52765;DHT22;38650;44.536;18.664;2022-12-10T18:28:03;11.60;99.90
52765;DHT22;38650;44.536;18.664;2022-12-10T18:30:29;11.50;99.90
52765;DHT22;38650;44.536;18.664;2022-12-10T18:32:56;11.50;99.90
52765;DHT22;38650;44.536;18.664;2022-12-10T18:35:22;11.60;99.90
52765;DHT22;38650;44.536;18.664;2022-12-10T18:37:47;11.30;99.90
52765;DHT22;38650;44.536;18.664;2022-12-10T18:40:18;11.20;99.90
52765;DHT22;38650;44.536;18.664;2022-12-10T18:42:43;11.40;99.90
52765;DHT22;38650;44.536;18.664;2022-12-10T18:45:10;11.40;99.90
52765;DHT22;38650;44.536;18.664;2022-12-10T18:47:36;11.40;99.90
52765;DHT22;38650;44.536;18.664;2022-12-10T18:50:02;11.50;99.90
52765;DHT22;38650;44.536;18.664;2022-12-10T18:52:27;11.50;99.90
52765;DHT22;38650;44.536;18.664;2022-12-10T18:54:53;11.50;99.90
52765;DHT22;38650;44.536;18.664;2022-12-10T18:57:19;11.60;99.90
52765;DHT22;38650;44.536;18.664;2022-12-10T18:59:45;11.70;99.90
52765;DHT22;38650;44.536;18.664;2022-12-10T19:02:10;11.40;99.90
52765;DHT22;38650;44.536;18.664;2022-12-10T19:04:36;11.40;99.90
52765;DHT22;38650;44.536;18.664;2022-12-10T19:07:03;11.20;99.90
52765;DHT22;38650;44.536;18.664;2022-12-10T19:09:28;11.20;99.90
52765;DHT22;38650;44.536;18.664;2022-12-10T19:11:54;10.90;99.90
52765;DHT22;38650;44.536;18.664;2022-12-10T19:14:20;10.70;99.90
52765;DHT22;38650;44.536;18.664;2022-12-10T19:16:48;10.40;99.90
52765;DHT22;38650;44.536;18.664;2022-12-10T19:19:16;10.40;99.90
52765;DHT22;38650;44.536;18.664;2022-12-10T19:21:43;10.50;99.90
52765;DHT22;38650;44.536;18.664;2022-12-10T19:24:09;10.30;99.90
52765;DHT22;38650;44.536;18.664;2022-12-10T19:26:38;10.10;99.90
52765;DHT22;38650;44.536;18.664;2022-12-10T19:29:21;10.10;99.90
52765;DHT22;38650;44.536;18.664;2022-12-10T19:31:47;10.20;99.90
52765;DHT22;38650;44.536;18.664;2022-12-10T19:34:15;10.20;99.90
52765;DHT22;38650;44.536;18.664;2022-12-10T19:36:42;10.10;99.90
52765;DHT22;38650;44.536;18.664;2022-12-10T19:39:18;9.90;99.90
52765;DHT22;38650;44.536;18.664;2022-12-10T19:41:44;9.70;99.90
52765;DHT22;38650;44.536;18.664;2022-12-10T19:44:10;9.60;99.90
52765;DHT22;38650;44.536;18.664;2022-12-10T19:46:36;9.50;99.90
52765;DHT22;38650;44.536;18.664;2022-12-10T19:49:02;9.50;99.90
52765;DHT22;38650;44.536;18.664;2022-12-10T19:51:28;9.60;99.90
52765;DHT22;38650;44.536;18.664;2022-12-10T19:53:53;9.80;99.90
52765;DHT22;38650;44.536;18.664;2022-12-10T19:58:52;9.60;99.90
52765;DHT22;38650;44.536;18.664;2022-12-10T20:01:18;9.70;99.90
52765;DHT22;38650;44.536;18.664;2022-12-10T20:03:44;9.80;99.90
52765;DHT22;38650;44.536;18.664;2022-12-10T20:06:13;9.90;99.90
52765;DHT22;38650;44.536;18.664;2022-12-10T20:08:40;10.00;99.90
52765;DHT22;38650;44.536;18.664;2022-12-10T20:11:06;10.00;99.90
52765;DHT22;38650;44.536;18.664;2022-12-10T20:13:31;10.00;99.90
52765;DHT22;38650;44.536;18.664;2022-12-10T20:15:57;9.80;99.90
52765;DHT22;38650;44.536;18.664;2022-12-10T20:18:23;9.60;99.90
52765;DHT22;38650;44.536;18.664;2022-12-10T20:20:48;9.50;99.90
52765;DHT22;38650;44.536;18.664;2022-12-10T20:23:14;9.60;99.90
52765;DHT22;38650;44.536;18.664;2022-12-10T20:25:40;9.60;99.90
52765;DHT22;38650;44.536;18.664;2022-12-10T20:28:10;9.60;99.90
52765;DHT22;38650;44.536;18.664;2022-12-10T20:30:40;9.60;99.90
52765;DHT22;38650;44.536;18.664;2022-12-10T20:33:06;9.70;99.90
52765;DHT22;38650;44.536;18.664;2022-12-10T20:35:32;9.70;99.90
52765;DHT22;38650;44.536;18.664;2022-12-10T20:37:57;9.70;99.90
52765;DHT22;38650;44.536;18.664;2022-12-10T20:40:24;9.70;99.90
52765;DHT22;38650;44.536;18.664;2022-12-10T20:42:50;9.70;99.90
52765;DHT22;38650;44.536;18.664;2022-12-10T20:45:16;9.70;99.90
52765;DHT22;38650;44.536;18.664;2022-12-10T20:47:42;9.70;99.90
52765;DHT22;38650;44.536;18.664;2022-12-10T20:50:13;9.80;99.90
52765;DHT22;38650;44.536;18.664;2022-12-10T20:52:40;9.80;99.90
52765;DHT22;38650;44.536;18.664;2022-12-10T20:55:06;9.80;99.90
52765;DHT22;38650;44.536;18.664;2022-12-10T20:57:31;9.70;99.90
52765;DHT22;38650;44.536;18.664;2022-12-10T20:59:58;9.50;99.90
52765;DHT22;38650;44.536;18.664;2022-12-10T21:02:23;9.40;99.90
52765;DHT22;38650;44.536;18.664;2022-12-10T21:04:49;9.30;99.90
52765;DHT22;38650;44.536;18.664;2022-12-10T21:07:15;9.40;99.90
52765;DHT22;38650;44.536;18.664;2022-12-10T21:09:41;9.40;99.90
52765;DHT22;38650;44.536;18.664;2022-12-10T21:12:07;9.40;99.90
52765;DHT22;38650;44.536;18.664;2022-12-10T21:14:33;9.40;99.90
52765;DHT22;38650;44.536;18.664;2022-12-10T21:16:59;9.40;99.90
52765;DHT22;38650;44.536;18.664;2022-12-10T21:19:26;9.40;99.90
52765;DHT22;38650;44.536;18.664;2022-12-10T21:21:52;9.20;99.90
52765;DHT22;38650;44.536;18.664;2022-12-10T21:24:17;9.10;99.90
52765;DHT22;38650;44.536;18.664;2022-12-10T21:26:43;9.10;99.90
52765;DHT22;38650;44.536;18.664;2022-12-10T21:29:09;9.10;99.90
52765;DHT22;38650;44.536;18.664;2022-12-10T21:31:35;9.10;99.90
52765;DHT22;38650;44.536;18.664;2022-12-10T21:34:00;9.10;99.90
52765;DHT22;38650;44.536;18.664;2022-12-10T21:36:26;9.00;99.90
52765;DHT22;38650;44.536;18.664;2022-12-10T21:38:52;8.90;99.90
52765;DHT22;38650;44.536;18.664;2022-12-10T21:41:21;8.70;99.90
52765;DHT22;38650;44.536;18.664;2022-12-10T21:44:05;8.70;99.90
52765;DHT22;38650;44.536;18.664;2022-12-10T21:46:31;8.70;99.90
52765;DHT22;38650;44.536;18.664;2022-12-10T21:48:57;8.60;99.90
52765;DHT22;38650;44.536;18.664;2022-12-10T21:51:22;8.60;99.90
52765;DHT22;38650;44.536;18.664;2022-12-10T21:53:48;8.40;99.90
52765;DHT22;38650;44.536;18.664;2022-12-10T21:56:14;8.40;99.90
52765;DHT22;38650;44.536;18.664;2022-12-10T21:58:40;8.30;99.90
52765;DHT22;38650;44.536;18.664;2022-12-10T22:01:06;8.40;99.90
52765;DHT22;38650;44.536;18.664;2022-12-10T22:03:35;8.40;99.90
52765;DHT22;38650;44.536;18.664;2022-12-10T22:06:01;8.50;99.90
52765;DHT22;38650;44.536;18.664;2022-12-10T22:08:27;8.60;99.90
52765;DHT22;38650;44.536;18.664;2022-12-10T22:10:53;8.60;99.90
52765;DHT22;38650;44.536;18.664;2022-12-10T22:13:18;8.50;99.90
52765;DHT22;38650;44.536;18.664;2022-12-10T22:15:45;8.60;99.90
52765;DHT22;38650;44.536;18.664;2022-12-10T22:18:11;8.40;99.90
52765;DHT22;38650;44.536;18.664;2022-12-10T22:20:38;8.30;99.90
52765;DHT22;38650;44.536;18.664;2022-12-10T22:23:07;8.10;99.90
52765;DHT22;38650;44.536;18.664;2022-12-10T22:25:33;8.10;99.90
52765;DHT22;38650;44.536;18.664;2022-12-10T22:27:59;8.20;99.90
52765;DHT22;38650;44.536;18.664;2022-12-10T22:30:25;8.40;99.90
52765;DHT22;38650;44.536;18.664;2022-12-10T22:32:51;8.60;99.90
52765;DHT22;38650;44.536;18.664;2022-12-10T22:35:18;8.50;99.90
52765;DHT22;38650;44.536;18.664;2022-12-10T22:37:44;8.60;99.90
52765;DHT22;38650;44.536;18.664;2022-12-10T22:40:10;8.50;99.90
52765;DHT22;38650;44.536;18.664;2022-12-10T22:42:38;8.50;99.90
52765;DHT22;38650;44.536;18.664;2022-12-10T22:45:08;8.60;99.90
52765;DHT22;38650;44.536;18.664;2022-12-10T22:47:35;8.70;99.90
52765;DHT22;38650;44.536;18.664;2022-12-10T22:50:01;8.70;99.90
52765;DHT22;38650;44.536;18.664;2022-12-10T22:52:28;8.70;99.90
52765;DHT22;38650;44.536;18.664;2022-12-10T22:54:55;8.40;99.90
52765;DHT22;38650;44.536;18.664;2022-12-10T22:57:21;7.90;99.90
52765;DHT22;38650;44.536;18.664;2022-12-10T22:59:46;7.70;99.90
52765;DHT22;38650;44.536;18.664;2022-12-10T23:02:12;7.70;99.90
52765;DHT22;38650;44.536;18.664;2022-12-10T23:04:38;7.80;99.90
52765;DHT22;38650;44.536;18.664;2022-12-10T23:07:04;7.60;99.90
52765;DHT22;38650;44.536;18.664;2022-12-10T23:09:30;7.50;99.90
52765;DHT22;38650;44.536;18.664;2022-12-10T23:11:56;7.20;99.90
52765;DHT22;38650;44.536;18.664;2022-12-10T23:14:40;7.30;99.90
52765;DHT22;38650;44.536;18.664;2022-12-10T23:17:06;7.20;99.90
52765;DHT22;38650;44.536;18.664;2022-12-10T23:19:32;7.10;99.90
52765;DHT22;38650;44.536;18.664;2022-12-10T23:21:58;7.10;99.90
52765;DHT22;38650;44.536;18.664;2022-12-10T23:24:23;7.10;99.90
52765;DHT22;38650;44.536;18.664;2022-12-10T23:26:49;7.00;99.90
